Port Acres, Texas
Current Conditions -  °F | °C
As of 8:53 AM on Thursday 23 Oct 2014 (Local Time) from KBPT Reporting Station
Clear Clear  
Wind Chill: 18°   Ceiling: Unl
Heat Index: 18°   Visibility: 10mi
Dew Point: 11°   Wind: 10mph
Humidity: 65%   Direction: 70°ENE
Pressure: 30.1"   Gusts: NA
Location:  29.7569°N, 94.1898°W
Report Text: KBPT 231353Z 07009KT 10SM CLR 18/11 A3010 RMK AO2 SLP194 T01780111
Loading
Personal Weather Stations






























Interactive Weather Map
Tropical Storm Tracking
New forecast layout! Learn more

10-Day Weather Forecast

Advertisements
Track Severe Weather on mobile